Time;durP1;ratioP1;P1;durP2;ratioP2;P2;SDS_P1;SDS_P2;PMS_P1;PMS_P2;Temp;Humidity;BMP_temperature;BMP_pressure;BME280_temperature;BME280_humidity;BME280_pressure;Samples;Min_cycle;Max_cycle;Signal;HPM_P1;HPM_P2
2022/03/01 00:01:45;;;;;;;46.25;23.05;;;;;;;;;;6213383;28;20116;-66
2022/03/01 00:04:46;;;;;;;17.35;7.25;;;;;;;;;;6206517;28;20137;-68
2022/03/01 00:07:49;;;;;;;14.98;7.18;;;;;;;;;;6207768;28;20088;-68
2022/03/01 00:10:51;;;;;;;11.77;6.40;;;;;;;;;;6208448;28;20054;-68
2022/03/01 00:13:52;;;;;;;11.93;6.47;;;;;;;;;;6203579;28;20050;-69
2022/03/01 00:16:54;;;;;;;12.43;6.80;;;;;;;;;;6206569;28;20051;-68
2022/03/01 00:19:55;;;;;;;10.60;6.43;;;;;;;;;;6207805;28;20046;-68
2022/03/01 00:22:58;;;;;;;12.07;6.30;;;;;;;;;;6211189;28;20046;-70
2022/03/01 00:26:00;;;;;;;12.48;6.00;;;;;;;;;;6209446;28;20129;-68
2022/03/01 00:29:01;;;;;;;10.98;5.75;;;;;;;;;;6209350;28;20143;-68
2022/03/01 00:32:04;;;;;;;10.52;6.20;;;;;;;;;;6207878;28;20076;-70
2022/03/01 00:35:06;;;;;;;14.85;5.85;;;;;;;;;;6208472;28;20494;-68
2022/03/01 00:38:09;;;;;;;9.05;5.88;;;;;;;;;;6206224;28;20065;-70
2022/03/01 00:41:10;;;;;;;12.25;5.72;;;;;;;;;;6205958;28;20516;-70
2022/03/01 00:44:12;;;;;;;10.30;5.10;;;;;;;;;;6203654;28;20091;-70
2022/03/01 00:47:13;;;;;;;10.07;5.40;;;;;;;;;;6200758;28;20136;-68
2022/03/01 00:50:15;;;;;;;15.60;5.40;;;;;;;;;;6201323;28;20616;-68
2022/03/01 00:53:18;;;;;;;12.15;4.93;;;;;;;;;;6206847;28;20133;-67
2022/03/01 00:56:19;;;;;;;10.63;5.22;;;;;;;;;;6207640;28;20128;-70
2022/03/01 00:59:21;;;;;;;8.57;4.97;;;;;;;;;;6201723;28;20060;-70
2022/03/01 01:02:22;;;;;;;8.73;4.80;;;;;;;;;;6204039;28;20565;-70
2022/03/01 01:05:24;;;;;;;8.00;4.47;;;;;;;;;;6212107;28;20435;-68
2022/03/01 01:08:27;;;;;;;11.55;4.88;;;;;;;;;;6209666;28;20108;-70
2022/03/01 01:11:29;;;;;;;13.00;4.97;;;;;;;;;;6206429;28;20136;-68
2022/03/01 01:14:30;;;;;;;11.38;5.30;;;;;;;;;;6207545;28;20128;-68
2022/03/01 01:17:32;;;;;;;11.60;5.07;;;;;;;;;;6206895;28;20110;-67
2022/03/01 01:20:33;;;;;;;11.90;4.88;;;;;;;;;;6203977;28;20076;-67
2022/03/01 01:23:36;;;;;;;9.50;4.88;;;;;;;;;;6202649;28;20101;-68
2022/03/01 01:26:38;;;;;;;7.13;4.68;;;;;;;;;;6201954;28;20111;-67
2022/03/01 01:29:39;;;;;;;8.80;5.00;;;;;;;;;;6203968;28;20061;-67
2022/03/01 01:32:42;;;;;;;8.48;4.38;;;;;;;;;;6201982;28;20128;-70
2022/03/01 01:35:43;;;;;;;8.70;5.20;;;;;;;;;;6204294;28;20085;-70
2022/03/01 01:38:46;;;;;;;7.82;4.20;;;;;;;;;;6202312;28;20565;-70
2022/03/01 01:41:48;;;;;;;11.82;5.32;;;;;;;;;;6202563;28;20163;-67
2022/03/01 01:44:50;;;;;;;9.55;4.50;;;;;;;;;;6201644;28;20050;-68
2022/03/01 01:47:52;;;;;;;10.25;4.78;;;;;;;;;;6210028;28;20156;-68
2022/03/01 01:50:54;;;;;;;10.98;4.72;;;;;;;;;;6200593;28;20081;-67
2022/03/01 01:53:57;;;;;;;10.57;5.15;;;;;;;;;;6204573;28;20520;-68
2022/03/01 01:56:59;;;;;;;8.32;4.53;;;;;;;;;;6205255;28;20168;-68
2022/03/01 02:00:01;;;;;;;10.60;4.53;;;;;;;;;;6202030;28;20136;-68
2022/03/01 02:03:02;;;;;;;10.73;4.57;;;;;;;;;;6213671;28;20118;-68
2022/03/01 02:06:04;;;;;;;8.30;4.88;;;;;;;;;;6210498;28;20061;-67
2022/03/01 02:09:07;;;;;;;7.20;4.00;;;;;;;;;;6210141;28;20050;-70
2022/03/01 02:12:09;;;;;;;8.30;4.25;;;;;;;;;;6207246;28;20133;-68
2022/03/01 02:15:10;;;;;;;7.68;4.43;;;;;;;;;;6205772;28;20129;-70
2022/03/01 02:18:12;;;;;;;7.57;4.18;;;;;;;;;;6204712;28;20133;-67
2022/03/01 02:21:15;;;;;;;9.30;4.40;;;;;;;;;;6201902;28;20152;-67
2022/03/01 02:24:16;;;;;;;6.60;4.22;;;;;;;;;;6199595;28;20046;-68
2022/03/01 02:27:20;;;;;;;8.85;4.38;;;;;;;;;;6208501;28;20601;-68
2022/03/01 02:30:21;;;;;;;8.23;3.92;;;;;;;;;;6205086;28;20504;-70
2022/03/01 02:33:23;;;;;;;11.80;4.30;;;;;;;;;;6201888;28;20046;-67
2022/03/01 02:36:26;;;;;;;7.65;4.30;;;;;;;;;;6211524;28;20092;-69
2022/03/01 02:39:28;;;;;;;11.40;4.57;;;;;;;;;;6213912;28;20049;-69
2022/03/01 02:42:30;;;;;;;8.07;4.60;;;;;;;;;;6211635;28;20052;-69
2022/03/01 02:45:32;;;;;;;9.10;4.57;;;;;;;;;;6209003;28;20177;-69
2022/03/01 02:48:33;;;;;;;7.95;4.05;;;;;;;;;;6208993;28;20092;-69
2022/03/01 02:51:36;;;;;;;11.30;4.25;;;;;;;;;;6205958;28;20173;-70
2022/03/01 02:54:38;;;;;;;9.60;4.05;;;;;;;;;;6210628;28;20188;-68
2022/03/01 02:57:40;;;;;;;8.57;4.10;;;;;;;;;;6203809;28;20086;-69
2022/03/01 03:00:44;;;;;;;10.75;4.30;;;;;;;;;;6204224;28;20102;-67
2022/03/01 03:03:45;;;;;;;12.53;4.37;;;;;;;;;;6204358;28;20046;-67
2022/03/01 03:06:49;;;;;;;6.55;4.40;;;;;;;;;;6203528;28;20058;-70
2022/03/01 03:09:51;;;;;;;7.93;3.90;;;;;;;;;;6200710;28;20504;-69
2022/03/01 03:12:52;;;;;;;9.35;4.18;;;;;;;;;;6218090;28;20503;-69
2022/03/01 03:15:54;;;;;;;6.25;3.65;;;;;;;;;;6215414;28;20545;-69
2022/03/01 03:18:55;;;;;;;8.05;3.95;;;;;;;;;;6214697;28;20140;-68
2022/03/01 03:21:58;;;;;;;6.47;3.50;;;;;;;;;;6197591;28;20042;-68
2022/03/01 03:25:00;;;;;;;6.10;3.65;;;;;;;;;;6205234;28;20413;-69
2022/03/01 03:28:01;;;;;;;9.85;3.88;;;;;;;;;;6207037;28;20049;-68
2022/03/01 03:31:03;;;;;;;8.07;3.95;;;;;;;;;;6206535;28;20494;-68
2022/03/01 03:34:07;;;;;;;6.35;4.07;;;;;;;;;;6202228;28;20124;-68
2022/03/01 03:37:11;;;;;;;8.50;3.88;;;;;;;;;;6202935;28;20104;-68
2022/03/01 03:40:12;;;;;;;7.28;3.55;;;;;;;;;;6201109;28;20057;-68
2022/03/01 03:43:14;;;;;;;7.78;3.95;;;;;;;;;;6199365;28;20061;-67
2022/03/01 03:46:16;;;;;;;8.63;3.78;;;;;;;;;;6208168;28;20077;-67
2022/03/01 03:49:19;;;;;;;7.65;3.90;;;;;;;;;;6218491;28;20058;-67
2022/03/01 03:52:22;;;;;;;12.73;4.38;;;;;;;;;;6215905;28;20512;-67
2022/03/01 03:55:24;;;;;;;6.60;3.58;;;;;;;;;;6215281;28;20172;-67
2022/03/01 03:58:25;;;;;;;7.07;4.05;;;;;;;;;;6211433;28;20092;-67
2022/03/01 04:01:27;;;;;;;7.97;4.10;;;;;;;;;;6210383;28;20424;-67
2022/03/01 04:04:28;;;;;;;8.95;4.30;;;;;;;;;;6201645;28;20053;-67
2022/03/01 04:07:31;;;;;;;7.78;4.07;;;;;;;;;;6205853;28;20096;-67
2022/03/01 04:10:33;;;;;;;7.28;4.15;;;;;;;;;;6204704;28;20102;-67
2022/03/01 04:13:34;;;;;;;7.93;4.00;;;;;;;;;;6205361;28;20058;-67
2022/03/01 04:16:38;;;;;;;7.40;4.57;;;;;;;;;;6198882;28;20136;-67
2022/03/01 04:19:39;;;;;;;7.93;4.35;;;;;;;;;;6199525;28;20053;-67
2022/03/01 04:22:42;;;;;;;5.70;3.75;;;;;;;;;;6200107;28;20038;-67
2022/03/01 04:25:44;;;;;;;7.82;3.65;;;;;;;;;;6196768;28;20126;-69
2022/03/01 04:28:45;;;;;;;8.20;4.13;;;;;;;;;;6207310;28;20093;-68
2022/03/01 04:31:47;;;;;;;7.97;4.00;;;;;;;;;;6211619;28;20135;-68
2022/03/01 04:34:48;;;;;;;7.40;3.80;;;;;;;;;;6210324;28;20042;-68
2022/03/01 04:37:51;;;;;;;7.70;3.45;;;;;;;;;;6208796;28;20050;-68
2022/03/01 04:40:53;;;;;;;10.82;4.05;;;;;;;;;;6205837;28;20164;-68
2022/03/01 04:43:55;;;;;;;5.97;3.75;;;;;;;;;;6204357;28;20050;-68
2022/03/01 04:46:56;;;;;;;8.85;3.75;;;;;;;;;;6203414;28;20141;-68
2022/03/01 04:49:58;;;;;;;7.25;3.55;;;;;;;;;;6199977;28;20053;-68
2022/03/01 04:53:01;;;;;;;8.27;4.25;;;;;;;;;;6198801;28;20129;-68
2022/03/01 04:56:03;;;;;;;7.18;3.78;;;;;;;;;;6202392;28;20077;-68
2022/03/01 04:59:04;;;;;;;9.85;3.83;;;;;;;;;;6199536;28;20141;-68
2022/03/01 05:02:06;;;;;;;8.32;3.80;;;;;;;;;;6197449;28;20069;-68
2022/03/01 05:05:10;;;;;;;6.88;3.83;;;;;;;;;;6196315;28;20128;-68
2022/03/01 05:08:13;;;;;;;8.70;4.28;;;;;;;;;;6210206;28;20127;-68
2022/03/01 05:11:14;;;;;;;7.78;3.92;;;;;;;;;;6209767;28;20125;-68
2022/03/01 05:14:16;;;;;;;6.40;3.80;;;;;;;;;;6209175;28;20081;-68
2022/03/01 05:17:17;;;;;;;6.82;3.78;;;;;;;;;;6210859;28;20120;-68
2022/03/01 05:20:19;;;;;;;8.68;4.10;;;;;;;;;;6207926;28;20455;-68
2022/03/01 05:23:22;;;;;;;5.95;3.55;;;;;;;;;;6201041;28;20125;-68
2022/03/01 05:26:25;;;;;;;8.52;4.35;;;;;;;;;;6203069;28;20129;-67
2022/03/01 05:29:26;;;;;;;10.10;3.80;;;;;;;;;;6200772;28;20565;-68
2022/03/01 05:32:28;;;;;;;7.28;3.88;;;;;;;;;;6209167;28;20083;-68
2022/03/01 05:35:31;;;;;;;7.97;3.45;;;;;;;;;;6206993;28;20042;-67
2022/03/01 05:38:34;;;;;;;8.65;4.80;;;;;;;;;;6203742;28;20084;-68
2022/03/01 05:41:35;;;;;;;10.40;4.53;;;;;;;;;;6202876;28;20077;-68
2022/03/01 05:44:37;;;;;;;7.15;3.63;;;;;;;;;;6201850;28;20137;-68
2022/03/01 05:47:40;;;;;;;8.63;4.07;;;;;;;;;;6212947;28;20052;-68
2022/03/01 05:50:41;;;;;;;6.35;3.75;;;;;;;;;;6209077;28;20125;-68
2022/03/01 05:53:45;;;;;;;9.43;3.92;;;;;;;;;;6199941;28;20401;-68
2022/03/01 05:56:46;;;;;;;7.57;4.18;;;;;;;;;;6206651;28;20266;-68
2022/03/01 05:59:48;;;;;;;8.55;4.32;;;;;;;;;;6203775;28;20531;-68
2022/03/01 06:02:50;;;;;;;6.18;3.72;;;;;;;;;;6201064;28;20129;-68
2022/03/01 06:05:52;;;;;;;10.35;4.25;;;;;;;;;;6207987;28;20073;-68
2022/03/01 06:08:55;;;;;;;11.93;4.32;;;;;;;;;;6209655;28;20176;-68
2022/03/01 06:11:57;;;;;;;8.38;3.97;;;;;;;;;;6207799;28;20090;-67
2022/03/01 06:14:58;;;;;;;5.70;3.78;;;;;;;;;;6205461;28;20102;-66
2022/03/01 06:18:00;;;;;;;9.40;4.13;;;;;;;;;;6203751;28;20129;-66
2022/03/01 06:21:02;;;;;;;13.38;4.35;;;;;;;;;;6203584;28;20050;-67
2022/03/01 06:24:06;;;;;;;9.25;4.15;;;;;;;;;;6198853;28;20540;-67
2022/03/01 06:27:07;;;;;;;7.57;3.85;;;;;;;;;;6207739;28;20086;-67
2022/03/01 06:30:10;;;;;;;12.55;3.63;;;;;;;;;;6206425;28;20573;-67
2022/03/01 06:33:12;;;;;;;9.60;4.28;;;;;;;;;;6203293;28;20173;-66
2022/03/01 06:36:14;;;;;;;8.65;4.25;;;;;;;;;;6206022;28;20055;-66
2022/03/01 06:39:17;;;;;;;9.63;4.10;;;;;;;;;;6202715;28;20132;-67
2022/03/01 06:42:18;;;;;;;7.65;3.95;;;;;;;;;;6212485;28;20161;-67
2022/03/01 06:45:20;;;;;;;7.53;4.13;;;;;;;;;;6211577;28;20065;-67
2022/03/01 06:48:22;;;;;;;9.15;3.88;;;;;;;;;;6207917;28;20107;-67
2022/03/01 06:51:23;;;;;;;7.43;3.65;;;;;;;;;;6207646;28;20050;-67
2022/03/01 06:54:26;;;;;;;7.63;3.20;;;;;;;;;;6203895;28;20129;-67
2022/03/01 06:57:28;;;;;;;7.10;3.88;;;;;;;;;;6212316;28;20076;-67
2022/03/01 07:00:29;;;;;;;8.23;3.90;;;;;;;;;;6207135;28;20129;-66
2022/03/01 07:03:31;;;;;;;6.82;3.75;;;;;;;;;;6200296;28;20069;-67
2022/03/01 07:06:32;;;;;;;9.18;4.28;;;;;;;;;;6211419;28;20051;-67
2022/03/01 07:09:35;;;;;;;9.50;4.10;;;;;;;;;;6206905;28;20387;-67
2022/03/01 07:12:37;;;;;;;7.68;4.03;;;;;;;;;;6206361;28;20192;-67
2022/03/01 07:15:38;;;;;;;10.00;3.63;;;;;;;;;;6211396;28;20091;-67
2022/03/01 07:18:42;;;;;;;8.15;4.18;;;;;;;;;;6214267;28;20579;-68
2022/03/01 07:21:43;;;;;;;12.05;4.35;;;;;;;;;;6212560;28;20582;-67
2022/03/01 07:24:46;;;;;;;6.55;3.92;;;;;;;;;;6209264;28;20099;-67
2022/03/01 07:27:50;;;;;;;10.50;4.32;;;;;;;;;;6208332;28;20549;-67
2022/03/01 07:30:51;;;;;;;9.68;4.15;;;;;;;;;;6205887;28;20441;-67
2022/03/01 07:33:53;;;;;;;8.20;4.05;;;;;;;;;;6204885;28;20440;-69
2022/03/01 07:36:54;;;;;;;6.57;3.67;;;;;;;;;;6202884;28;20046;-67
2022/03/01 07:39:59;;;;;;;7.95;3.63;;;;;;;;;;6203288;28;20214;-68
2022/03/01 07:43:01;;;;;;;12.38;3.75;;;;;;;;;;6201022;28;20096;-68
2022/03/01 07:46:05;;;;;;;8.25;4.38;;;;;;;;;;6203605;28;20081;-68
2022/03/01 07:49:06;;;;;;;11.20;4.75;;;;;;;;;;6211597;28;20513;-67
2022/03/01 07:52:08;;;;;;;8.18;4.47;;;;;;;;;;6213329;28;20050;-68
2022/03/01 07:55:11;;;;;;;7.15;4.45;;;;;;;;;;6215385;28;20064;-68
2022/03/01 07:58:13;;;;;;;7.70;4.40;;;;;;;;;;6213041;28;20137;-68
2022/03/01 08:01:14;;;;;;;10.13;4.28;;;;;;;;;;6212379;28;20121;-68
2022/03/01 08:04:16;;;;;;;8.18;4.90;;;;;;;;;;6204580;28;20513;-68
2022/03/01 08:07:17;;;;;;;9.95;4.78;;;;;;;;;;6208316;28;20149;-68
2022/03/01 08:10:20;;;;;;;8.63;4.97;;;;;;;;;;6204090;28;20068;-68
2022/03/01 08:13:22;;;;;;;7.38;3.97;;;;;;;;;;6204525;28;20062;-68
2022/03/01 08:16:23;;;;;;;9.30;4.65;;;;;;;;;;6204198;28;20129;-67
2022/03/01 08:19:25;;;;;;;13.20;4.32;;;;;;;;;;6201250;28;20561;-68
2022/03/01 08:22:27;;;;;;;10.57;3.90;;;;;;;;;;6200643;28;20141;-67
2022/03/01 08:25:30;;;;;;;13.73;4.75;;;;;;;;;;6208016;28;20147;-67
2022/03/01 08:28:32;;;;;;;6.75;4.00;;;;;;;;;;6216859;28;20072;-67
2022/03/01 08:31:33;;;;;;;11.10;4.00;;;;;;;;;;6212635;28;20177;-68
2022/03/01 08:34:35;;;;;;;9.68;4.18;;;;;;;;;;6212952;28;20069;-69
2022/03/01 08:37:37;;;;;;;6.72;4.00;;;;;;;;;;6211215;28;20180;-69
2022/03/01 08:40:40;;;;;;;7.40;3.83;;;;;;;;;;6208726;28;20069;-68
2022/03/01 08:43:42;;;;;;;10.73;3.97;;;;;;;;;;6208228;28;20114;-69
2022/03/01 08:46:43;;;;;;;10.50;4.50;;;;;;;;;;6204625;28;20064;-68
2022/03/01 08:49:45;;;;;;;7.15;4.13;;;;;;;;;;6205393;28;20046;-69
2022/03/01 08:52:46;;;;;;;7.00;4.05;;;;;;;;;;6206604;28;20073;-68
2022/03/01 08:55:49;;;;;;;12.57;4.18;;;;;;;;;;6202495;28;20184;-68
2022/03/01 08:58:51;;;;;;;6.05;3.90;;;;;;;;;;6200850;28;20145;-68
2022/03/01 09:01:53;;;;;;;6.43;4.00;;;;;;;;;;6205030;28;20158;-68
2022/03/01 09:04:54;;;;;;;7.32;4.38;;;;;;;;;;6209132;28;20700;-68
2022/03/01 09:07:56;;;;;;;8.95;4.10;;;;;;;;;;6213930;28;20081;-68
2022/03/01 09:10:59;;;;;;;7.88;4.25;;;;;;;;;;6212203;28;20101;-68
2022/03/01 09:14:01;;;;;;;10.10;3.70;;;;;;;;;;6209060;28;20188;-68
2022/03/01 09:17:03;;;;;;;7.40;4.22;;;;;;;;;;6207425;28;20445;-67
2022/03/01 09:20:05;;;;;;;9.93;3.97;;;;;;;;;;6204535;28;20099;-68
2022/03/01 09:23:08;;;;;;;6.90;4.88;;;;;;;;;;6204439;28;20069;-68
2022/03/01 09:26:11;;;;;;;10.75;4.60;;;;;;;;;;6201764;28;20050;-68
2022/03/01 09:29:13;;;;;;;7.60;4.32;;;;;;;;;;6201222;28;20406;-69
2022/03/01 09:32:16;;;;;;;8.73;4.65;;;;;;;;;;6198398;28;20133;-67
2022/03/01 09:35:18;;;;;;;7.10;4.03;;;;;;;;;;6208902;28;20038;-67
2022/03/01 09:38:20;;;;;;;6.63;4.22;;;;;;;;;;6208832;28;20381;-66
2022/03/01 09:41:24;;;;;;;8.80;4.70;;;;;;;;;;6205501;28;20184;-67
2022/03/01 09:44:25;;;;;;;6.68;4.57;;;;;;;;;;6200914;28;20129;-68
2022/03/01 09:47:27;;;;;;;7.95;4.53;;;;;;;;;;6204593;28;20054;-67
2022/03/01 09:50:29;;;;;;;8.43;3.85;;;;;;;;;;6206027;28;20095;-67
2022/03/01 09:53:31;;;;;;;10.13;4.40;;;;;;;;;;6206068;28;20085;-66
2022/03/01 09:56:35;;;;;;;8.10;4.07;;;;;;;;;;6203630;28;20085;-67
2022/03/01 09:59:37;;;;;;;6.30;4.20;;;;;;;;;;6205995;28;20054;-67
2022/03/01 10:02:40;;;;;;;11.27;5.00;;;;;;;;;;6207677;28;20220;-67
2022/03/01 10:05:43;;;;;;;7.25;4.53;;;;;;;;;;6207988;28;20444;-67
2022/03/01 10:08:45;;;;;;;7.47;4.78;;;;;;;;;;6206235;28;20038;-67
2022/03/01 10:11:49;;;;;;;7.97;4.47;;;;;;;;;;6210962;28;20290;-67
2022/03/01 10:14:55;;;;;;;;;;;;;;;;;;6209170;28;20049;-67
2022/03/01 10:17:57;;;;;;;8.90;4.32;;;;;;;;;;6205222;28;19930;-66
2022/03/01 10:21:02;;;;;;;6.13;4.35;;;;;;;;;;6207556;28;20122;-70
2022/03/01 10:24:07;;;;;;;7.30;4.47;;;;;;;;;;6210955;28;20053;-67
2022/03/01 10:27:09;;;;;;;6.65;4.10;;;;;;;;;;6214159;28;20069;-66
2022/03/01 10:30:13;;;;;;;6.95;4.80;;;;;;;;;;6213007;28;20405;-67
2022/03/01 10:33:17;;;;;;;8.73;4.65;;;;;;;;;;6211973;28;20129;-67
2022/03/01 10:36:21;;;;;;;6.93;4.22;;;;;;;;;;6207572;28;20133;-67
2022/03/01 10:39:29;;;;;;;9.48;4.78;;;;;;;;;;6208501;28;20145;-67
2022/03/01 10:42:32;;;;;;;10.45;5.03;;;;;;;;;;6211282;28;20041;-67
2022/03/01 10:45:36;;;;;;;7.97;4.60;;;;;;;;;;6211533;28;20100;-67
2022/03/01 10:48:37;;;;;;;;;;;;;;;;;;6212106;28;20070;-67
2022/03/01 10:51:48;;;;;;;7.25;4.82;;;;;;;;;;6213106;28;19982;-67
2022/03/01 10:54:50;;;;;;;8.43;4.68;;;;;;;;;;6208483;28;20046;-67
2022/03/01 10:58:01;;;;;;;6.85;4.63;;;;;;;;;;6206967;28;20503;-68
2022/03/01 11:01:03;;;;;;;7.18;5.00;;;;;;;;;;6210232;28;20128;-67
2022/03/01 11:04:07;;;;;;;5.45;4.15;;;;;;;;;;6210007;28;20125;-67
2022/03/01 11:07:11;;;;;;;6.50;4.35;;;;;;;;;;6210997;28;20101;-68
2022/03/01 11:10:13;;;;;;;6.53;4.85;;;;;;;;;;6207926;28;20447;-68
2022/03/01 11:13:19;;;;;;;6.68;4.55;;;;;;;;;;6207245;28;20050;-65
2022/03/01 11:16:32;;;;;;;6.72;4.88;;;;;;;;;;6206585;28;20133;-68
2022/03/01 11:19:56;;;;;;;6.93;4.75;;;;;;;;;;6210128;28;20052;-68
2022/03/01 11:22:59;;;;;;;130.43;92.55;;;;;;;;;;6208043;28;20196;-66
2022/03/01 11:26:08;;;;;;;44.90;34.03;;;;;;;;;;6207583;28;20069;-69
2022/03/01 11:29:12;;;;;;;31.00;19.95;;;;;;;;;;6205945;28;20054;-69
2022/03/01 11:32:16;;;;;;;254.30;161.73;;;;;;;;;;6205931;28;20501;-68
2022/03/01 11:35:20;;;;;;;72.25;52.03;;;;;;;;;;6203862;28;20077;-69
2022/03/01 11:38:26;;;;;;;123.85;91.10;;;;;;;;;;6204248;28;20385;-69
2022/03/01 11:41:27;;;;;;;11.23;9.77;;;;;;;;;;6204186;28;20131;-70
2022/03/01 11:44:33;;;;;;;8.80;5.15;;;;;;;;;;6201666;28;20470;-68
2022/03/01 11:47:35;;;;;;;9.00;5.60;;;;;;;;;;6209168;28;20048;-69
2022/03/01 11:50:37;;;;;;;7.75;5.03;;;;;;;;;;6209560;28;20042;-69
2022/03/01 11:53:41;;;;;;;7.40;5.65;;;;;;;;;;6207467;28;20050;-68
2022/03/01 11:56:43;;;;;;;7.40;4.88;;;;;;;;;;6209232;28;20042;-68
2022/03/01 11:59:47;;;;;;;8.20;5.00;;;;;;;;;;6208173;28;20056;-68
2022/03/01 12:02:50;;;;;;;7.20;5.05;;;;;;;;;;6204966;28;20054;-67
2022/03/01 12:05:52;;;;;;;6.07;4.80;;;;;;;;;;6205672;28;20054;-67
2022/03/01 12:08:57;;;;;;;7.80;5.43;;;;;;;;;;6205737;28;20181;-67
2022/03/01 12:12:05;;;;;;;6.80;4.90;;;;;;;;;;6202525;28;20061;-68
2022/03/01 12:15:09;;;;;;;6.72;4.88;;;;;;;;;;6202836;28;20049;-68
2022/03/01 12:18:12;;;;;;;33.55;28.73;;;;;;;;;;6199291;28;20473;-66
2022/03/01 12:21:15;;;;;;;12.98;9.48;;;;;;;;;;6199439;28;20077;-67
2022/03/01 12:24:17;;;;;;;35.15;26.38;;;;;;;;;;6200245;28;20628;-66
2022/03/01 12:27:19;;;;;;;8.77;7.47;;;;;;;;;;6203698;28;20359;-68
2022/03/01 12:30:25;;;;;;;10.27;5.85;;;;;;;;;;6207905;28;20072;-69
2022/03/01 12:33:26;;;;;;;6.88;5.30;;;;;;;;;;6205500;28;20188;-68
2022/03/01 12:36:30;;;;;;;9.40;5.53;;;;;;;;;;6209314;28;20034;-67
2022/03/01 12:39:31;;;;;;;14.10;5.88;;;;;;;;;;6208345;28;20053;-67
2022/03/01 12:42:33;;;;;;;7.53;6.30;;;;;;;;;;6208782;28;20046;-66
2022/03/01 12:45:38;;;;;;;10.32;6.20;;;;;;;;;;6206721;28;20108;-68
2022/03/01 12:48:43;;;;;;;7.07;5.95;;;;;;;;;;6204866;28;20185;-69
2022/03/01 12:51:47;;;;;;;7.68;5.80;;;;;;;;;;6204410;28;20140;-69
2022/03/01 12:54:49;;;;;;;7.35;5.68;;;;;;;;;;6204649;28;20117;-68
2022/03/01 12:57:51;;;;;;;7.63;5.82;;;;;;;;;;6204283;28;20046;-69
2022/03/01 13:01:05;;;;;;;7.60;5.78;;;;;;;;;;6198504;28;20121;-68
2022/03/01 13:04:07;;;;;;;8.18;6.32;;;;;;;;;;6204256;28;20125;-68
2022/03/01 13:07:09;;;;;;;8.13;5.95;;;;;;;;;;6217897;28;20050;-68
2022/03/01 13:10:14;;;;;;;8.23;6.05;;;;;;;;;;6212248;28;20484;-69
2022/03/01 13:13:15;;;;;;;8.43;6.50;;;;;;;;;;6212149;28;20378;-69
2022/03/01 13:16:20;;;;;;;9.38;6.50;;;;;;;;;;6207488;28;20103;-68
2022/03/01 13:19:26;;;;;;;9.27;6.35;;;;;;;;;;6208229;28;20053;-69
2022/03/01 13:22:28;;;;;;;9.52;6.88;;;;;;;;;;6205369;28;20097;-69
2022/03/01 13:25:29;;;;;;;6.90;6.20;;;;;;;;;;6206500;28;20193;-69
2022/03/01 13:28:36;;;;;;;9.35;6.70;;;;;;;;;;6204404;28;20137;-69
2022/03/01 13:31:39;;;;;;;7.97;5.38;;;;;;;;;;6202396;28;20074;-69
2022/03/01 13:34:41;;;;;;;;;;;;;;;;;;6203280;28;20519;-69
2022/03/01 13:37:43;;;;;;;8.35;6.57;;;;;;;;;;6207884;28;20023;-68
2022/03/01 13:40:45;;;;;;;7.70;6.35;;;;;;;;;;6212496;28;20047;-69
2022/03/01 13:43:47;;;;;;;10.38;6.65;;;;;;;;;;6210425;28;20189;-69
2022/03/01 13:47:02;;;;;;;8.90;6.88;;;;;;;;;;6210721;28;20239;-68
2022/03/01 13:50:10;;;;;;;8.25;6.40;;;;;;;;;;6205995;28;20407;-68
2022/03/01 13:53:13;;;;;;;9.02;6.10;;;;;;;;;;6203929;28;20050;-69
2022/03/01 13:56:15;;;;;;;10.88;7.10;;;;;;;;;;6204998;28;20046;-68
2022/03/01 13:59:20;;;;;;;9.88;6.10;;;;;;;;;;6208781;28;20052;-70
2022/03/01 14:02:23;;;;;;;11.52;6.25;;;;;;;;;;6206136;28;20145;-71
2022/03/01 14:05:26;;;;;;;8.27;6.07;;;;;;;;;;6208931;28;20442;-68
2022/03/01 14:08:30;;;;;;;10.45;6.25;;;;;;;;;;6204490;28;20050;-70
2022/03/01 14:11:31;;;;;;;12.98;6.22;;;;;;;;;;6208907;28;20133;-68
2022/03/01 14:14:33;;;;;;;8.05;6.65;;;;;;;;;;6213192;28;20787;-70
2022/03/01 14:17:36;;;;;;;9.25;6.70;;;;;;;;;;6208119;28;20129;-68
2022/03/01 14:20:38;;;;;;;7.55;6.18;;;;;;;;;;6204727;28;20129;-68
2022/03/01 14:23:40;;;;;;;8.90;6.40;;;;;;;;;;6208437;28;20125;-70
2022/03/01 14:26:41;;;;;;;7.85;6.85;;;;;;;;;;6214340;28;20109;-68
2022/03/01 14:29:43;;;;;;;9.80;7.30;;;;;;;;;;6210364;28;20081;-69
2022/03/01 14:32:47;;;;;;;9.00;7.07;;;;;;;;;;6211025;28;20176;-69
2022/03/01 14:35:48;;;;;;;;;;;;;;;;;;6209491;28;20057;-67
2022/03/01 14:38:50;;;;;;;28.10;18.90;;;;;;;;;;6206585;28;19948;-66
2022/03/01 14:41:51;;;;;;;16.42;12.13;;;;;;;;;;6205265;28;20177;-67
2022/03/01 14:44:53;;;;;;;35.25;19.58;;;;;;;;;;6205301;28;20042;-68
2022/03/01 14:47:56;;;;;;;23.38;15.05;;;;;;;;;;6207258;28;20052;-64
2022/03/01 14:50:57;;;;;;;48.10;34.63;;;;;;;;;;6209001;28;20152;-70
2022/03/01 14:53:59;;;;;;;64.75;48.13;;;;;;;;;;6206551;28;20050;-69
2022/03/01 14:57:00;;;;;;;14.43;10.85;;;;;;;;;;6208848;28;20137;-68
2022/03/01 15:00:02;;;;;;;17.75;12.95;;;;;;;;;;6208175;28;20042;-70
2022/03/01 15:03:05;;;;;;;12.18;7.93;;;;;;;;;;6202590;28;20046;-68
2022/03/01 15:06:07;;;;;;;9.52;6.50;;;;;;;;;;6207636;28;20196;-69
2022/03/01 15:09:08;;;;;;;11.38;7.03;;;;;;;;;;6208845;28;20073;-66
2022/03/01 15:12:10;;;;;;;11.77;6.60;;;;;;;;;;6208272;28;20121;-66
2022/03/01 15:15:12;;;;;;;9.43;6.97;;;;;;;;;;6205927;28;20434;-66
2022/03/01 15:18:15;;;;;;;13.52;7.32;;;;;;;;;;6202315;28;20216;-67
2022/03/01 15:21:16;;;;;;;12.55;6.95;;;;;;;;;;6204414;28;20050;-68
2022/03/01 15:24:18;;;;;;;12.82;7.43;;;;;;;;;;6207827;28;20061;-68
2022/03/01 15:27:19;;;;;;;11.57;7.30;;;;;;;;;;6207105;28;20272;-68
2022/03/01 15:30:22;;;;;;;9.63;7.40;;;;;;;;;;6205953;28;20197;-69
2022/03/01 15:33:25;;;;;;;9.48;7.38;;;;;;;;;;6202494;28;20050;-68
2022/03/01 15:36:26;;;;;;;9.93;7.43;;;;;;;;;;6202372;28;20054;-68
2022/03/01 15:39:28;;;;;;;8.20;7.00;;;;;;;;;;6202094;28;20306;-68
2022/03/01 15:42:29;;;;;;;14.32;7.43;;;;;;;;;;6201690;28;20120;-68
2022/03/01 15:45:31;;;;;;;7.82;6.88;;;;;;;;;;6202306;28;20050;-68
2022/03/01 15:48:34;;;;;;;11.68;7.80;;;;;;;;;;6204871;28;20121;-68
2022/03/01 15:51:35;;;;;;;9.80;6.90;;;;;;;;;;6203299;28;20107;-68
2022/03/01 15:54:38;;;;;;;12.88;6.95;;;;;;;;;;6212330;28;20139;-69
2022/03/01 15:57:39;;;;;;;13.07;7.03;;;;;;;;;;6205028;28;20072;-69
2022/03/01 16:00:42;;;;;;;38.40;7.93;;;;;;;;;;6208899;28;20564;-68
2022/03/01 16:03:44;;;;;;;21.80;8.60;;;;;;;;;;6208063;28;20649;-68
2022/03/01 16:06:46;;;;;;;27.88;8.35;;;;;;;;;;6206141;28;20565;-68
2022/03/01 16:09:48;;;;;;;10.20;6.93;;;;;;;;;;6204315;28;20518;-68
2022/03/01 16:12:49;;;;;;;9.40;7.22;;;;;;;;;;6201298;28;20439;-69
2022/03/01 16:15:51;;;;;;;29.52;8.73;;;;;;;;;;6202157;28;20105;-71
2022/03/01 16:18:54;;;;;;;9.00;6.75;;;;;;;;;;6199243;28;20047;-70
2022/03/01 16:21:56;;;;;;;11.27;7.55;;;;;;;;;;6201971;28;20509;-70
2022/03/01 16:24:58;;;;;;;9.63;7.43;;;;;;;;;;6202236;28;20343;-70
2022/03/01 16:27:59;;;;;;;9.15;7.15;;;;;;;;;;6203764;28;20421;-70
2022/03/01 16:31:02;;;;;;;11.57;7.30;;;;;;;;;;6207196;28;20054;-70
2022/03/01 16:34:05;;;;;;;12.80;7.37;;;;;;;;;;6209756;28;20050;-69
2022/03/01 16:37:07;;;;;;;10.20;6.82;;;;;;;;;;6213354;28;20069;-70
2022/03/01 16:40:10;;;;;;;11.93;7.43;;;;;;;;;;6210807;28;20183;-72
2022/03/01 16:43:11;;;;;;;13.27;7.07;;;;;;;;;;6209676;28;20135;-71
2022/03/01 16:46:13;;;;;;;8.68;6.20;;;;;;;;;;6206202;28;20058;-71
2022/03/01 16:49:16;;;;;;;10.18;7.43;;;;;;;;;;6206334;28;20053;-71
2022/03/01 16:52:18;;;;;;;10.83;7.30;;;;;;;;;;6205901;28;20054;-70
2022/03/01 16:55:19;;;;;;;11.30;7.20;;;;;;;;;;6204479;28;20050;-71
2022/03/01 16:58:21;;;;;;;9.40;7.03;;;;;;;;;;6204848;28;20046;-70
2022/03/01 17:01:22;;;;;;;11.73;7.47;;;;;;;;;;6205964;28;20092;-71
2022/03/01 17:04:25;;;;;;;8.77;6.60;;;;;;;;;;6199734;28;20116;-71
2022/03/01 17:07:27;;;;;;;11.68;7.40;;;;;;;;;;6205468;28;20045;-70
2022/03/01 17:10:30;;;;;;;14.13;6.75;;;;;;;;;;6201431;28;20038;-71
2022/03/01 17:13:31;;;;;;;11.10;7.40;;;;;;;;;;6211126;28;20057;-70
2022/03/01 17:16:33;;;;;;;13.05;7.50;;;;;;;;;;6213152;28;20090;-70
2022/03/01 17:19:36;;;;;;;11.80;7.43;;;;;;;;;;6211334;28;20066;-72
2022/03/01 17:22:38;;;;;;;13.68;7.88;;;;;;;;;;6212861;28;20136;-70
2022/03/01 17:25:39;;;;;;;13.48;7.38;;;;;;;;;;6211128;28;20121;-70
2022/03/01 17:28:41;;;;;;;12.00;7.32;;;;;;;;;;6209206;28;20130;-71
2022/03/01 17:31:43;;;;;;;10.80;7.30;;;;;;;;;;6207802;28;20119;-70
2022/03/01 17:34:48;;;;;;;13.25;6.90;;;;;;;;;;6206440;28;20426;-70
2022/03/01 17:37:50;;;;;;;10.77;6.95;;;;;;;;;;6204450;28;20137;-70
2022/03/01 17:40:52;;;;;;;10.25;7.03;;;;;;;;;;6202815;28;20133;-70
2022/03/01 17:43:53;;;;;;;12.35;7.32;;;;;;;;;;6210790;28;20505;-71
2022/03/01 17:46:55;;;;;;;10.68;7.20;;;;;;;;;;6214069;28;20188;-71
2022/03/01 17:49:57;;;;;;;11.25;7.10;;;;;;;;;;6218787;28;20413;-71
2022/03/01 17:52:59;;;;;;;10.75;6.78;;;;;;;;;;6208605;28;20045;-72
2022/03/01 17:56:01;;;;;;;9.38;6.43;;;;;;;;;;6208433;28;20180;-70
2022/03/01 17:59:02;;;;;;;11.85;7.00;;;;;;;;;;6208752;28;20378;-72
2022/03/01 18:02:05;;;;;;;13.48;7.85;;;;;;;;;;6210565;28;20046;-71
2022/03/01 18:05:09;;;;;;;10.10;6.68;;;;;;;;;;6210877;28;20114;-71
2022/03/01 18:08:12;;;;;;;14.32;8.13;;;;;;;;;;6204331;28;20054;-70